createdAt,value
2019-03-13T00:01:43.807Z,2.20
2019-03-13T00:04:13.925Z,2.08
2019-03-13T00:06:43.999Z,3.62
2019-03-13T00:09:14.072Z,2.65
2019-03-13T00:11:44.596Z,3.15
2019-03-13T00:14:14.746Z,2.10
2019-03-13T00:16:44.931Z,5.50
2019-03-13T00:19:14.961Z,2.77
2019-03-13T00:21:45.106Z,4.55
2019-03-13T00:24:15.167Z,4.15
2019-03-13T00:26:45.366Z,2.50
2019-03-13T00:29:15.502Z,2.62
2019-03-13T00:31:45.695Z,2.12
2019-03-13T00:34:15.903Z,2.37
2019-03-13T00:36:46.104Z,2.65
2019-03-13T00:39:16.111Z,3.00
2019-03-13T00:41:46.271Z,2.25
2019-03-13T00:44:16.466Z,2.85
2019-03-13T00:46:46.617Z,3.85
2019-03-13T00:49:17.100Z,6.17
2019-03-13T00:51:47.230Z,2.98
2019-03-13T00:54:17.307Z,2.33
2019-03-13T00:56:47.375Z,3.37
2019-03-13T00:59:17.795Z,3.45
2019-03-13T01:01:55.987Z,3.40
2019-03-13T01:04:27.759Z,4.58
2019-03-13T01:06:59.454Z,3.87
2019-03-13T01:09:29.600Z,3.00
2019-03-13T01:11:59.666Z,5.10
2019-03-13T01:14:30.810Z,4.58
2019-03-13T01:17:00.817Z,2.35
2019-03-13T01:19:31.025Z,3.67
2019-03-13T01:22:02.254Z,2.37
2019-03-13T01:24:32.375Z,2.95
2019-03-13T01:27:02.525Z,5.47
2019-03-13T01:29:32.605Z,3.33
2019-03-13T01:32:04.643Z,2.40
2019-03-13T01:34:38.961Z,2.58
2019-03-13T01:37:09.178Z,2.67
2019-03-13T01:39:39.566Z,5.90
2019-03-13T01:42:09.561Z,6.03
2019-03-13T01:44:40.871Z,3.00
2019-03-13T01:47:11.668Z,5.47
2019-03-13T01:49:41.794Z,3.25
2019-03-13T01:52:12.316Z,2.50
2019-03-13T01:54:42.465Z,8.30
2019-03-13T01:57:12.543Z,6.62
2019-03-13T01:59:42.548Z,2.80
2019-03-13T02:02:13.118Z,2.25
2019-03-13T02:04:43.649Z,2.58
2019-03-13T02:07:13.749Z,3.10
2019-03-13T02:09:43.868Z,3.77
2019-03-13T02:12:14.245Z,3.00
2019-03-13T02:14:44.326Z,3.33
2019-03-13T02:17:15.532Z,4.55
2019-03-13T02:19:45.763Z,4.22
2019-03-13T02:22:15.904Z,3.80
2019-03-13T02:24:46.071Z,5.95
2019-03-13T02:27:16.255Z,4.47
2019-03-13T02:29:46.541Z,6.67
2019-03-13T02:32:16.713Z,4.28
2019-03-13T02:34:46.712Z,2.85
2019-03-13T02:37:16.802Z,5.30
2019-03-13T02:39:47.014Z,2.75
2019-03-13T02:42:17.213Z,4.47
2019-03-13T02:44:47.633Z,6.67
2019-03-13T02:47:19.268Z,2.92
2019-03-13T02:49:49.778Z,2.55
2019-03-13T02:52:20.003Z,3.47
2019-03-13T02:54:50.428Z,3.40
2019-03-13T02:57:22.613Z,4.47
2019-03-13T02:59:52.734Z,4.37
2019-03-13T03:02:27.435Z,4.50
2019-03-13T03:04:57.555Z,3.40
2019-03-13T03:07:27.651Z,4.75
2019-03-13T03:09:58.089Z,4.08
2019-03-13T03:12:28.553Z,5.05
2019-03-13T03:15:01.024Z,5.20
2019-03-13T03:17:32.187Z,3.90
2019-03-13T03:20:02.704Z,6.05
2019-03-13T03:22:33.827Z,4.72
2019-03-13T03:25:05.434Z,4.20
2019-03-13T03:27:35.797Z,7.22
2019-03-13T03:30:08.973Z,6.72
2019-03-13T03:32:39.103Z,6.58
2019-03-13T03:35:09.321Z,7.22
2019-03-13T03:37:39.528Z,6.58
2019-03-13T03:40:12.913Z,6.78
2019-03-13T03:42:43.370Z,4.45
2019-03-13T03:45:13.676Z,6.85
2019-03-13T03:47:43.811Z,7.53
2019-03-13T03:50:15.273Z,4.30
2019-03-13T03:52:45.632Z,5.03
2019-03-13T03:55:16.878Z,7.58
2019-03-13T03:57:47.347Z,5.00
2019-03-13T04:00:20.345Z,4.17
2019-03-13T04:02:50.484Z,5.45
2019-03-13T04:05:21.327Z,9.60
2019-03-13T04:07:52.007Z,4.17
2019-03-13T04:10:22.154Z,8.38
2019-03-13T04:12:52.172Z,4.80
2019-03-13T04:15:22.237Z,6.05
2019-03-13T04:17:52.429Z,6.42
2019-03-13T04:20:22.496Z,4.08
2019-03-13T04:22:53.092Z,11.75
2019-03-13T04:25:30.467Z,4.15
2019-03-13T04:28:00.522Z,6.72
2019-03-13T04:30:30.672Z,3.52
2019-03-13T04:33:00.741Z,6.50
2019-03-13T04:35:30.979Z,7.20
2019-03-13T04:38:01.175Z,6.37
2019-03-13T04:40:31.283Z,5.17
2019-03-13T04:43:01.448Z,4.65
2019-03-13T04:45:31.505Z,4.45
2019-03-13T04:48:01.662Z,5.92
2019-03-13T04:50:31.887Z,7.78
2019-03-13T04:53:01.970Z,8.43
2019-03-13T04:55:32.315Z,6.12
2019-03-13T04:58:02.519Z,6.50
2019-03-13T05:00:32.582Z,8.85
2019-03-13T05:03:03.080Z,10.68
2019-03-13T05:05:44.272Z,6.53
2019-03-13T05:08:44.989Z,7.30
2019-03-13T05:11:10.613Z,8.23
2019-03-13T05:13:41.248Z,5.62
2019-03-13T05:16:11.669Z,7.30
2019-03-13T05:18:42.038Z,7.12
2019-03-13T05:21:12.533Z,4.85
2019-03-13T05:23:42.757Z,8.03
2019-03-13T05:26:12.868Z,8.00
2019-03-13T05:28:43.021Z,6.97
2019-03-13T05:31:13.404Z,6.83
2019-03-13T05:33:43.540Z,5.72
2019-03-13T05:36:16.557Z,13.65
2019-03-13T05:38:45.399Z,12.03
2019-03-13T05:41:15.611Z,7.35
2019-03-13T05:43:46.766Z,6.17
2019-03-13T05:46:16.960Z,9.75
2019-03-13T05:48:47.118Z,7.70
2019-03-13T05:51:18.322Z,6.90
2019-03-13T05:53:48.818Z,10.45
2019-03-13T05:56:18.931Z,8.83
2019-03-13T05:58:49.071Z,13.78
2019-03-13T06:01:19.236Z,5.05
2019-03-13T06:03:49.295Z,6.22
2019-03-13T06:06:19.382Z,4.45
2019-03-13T06:08:49.533Z,7.12
2019-03-13T06:11:19.653Z,6.22
2019-03-13T06:13:49.797Z,7.25
2019-03-13T06:16:20.262Z,6.28
2019-03-13T06:18:52.724Z,10.90
2019-03-13T06:21:22.094Z,10.45
2019-03-13T06:23:52.274Z,10.05
2019-03-13T06:26:22.318Z,11.33
2019-03-13T06:28:52.950Z,13.72
2019-03-13T06:31:23.380Z,15.98
2019-03-13T06:33:53.878Z,9.90
2019-03-13T06:36:23.959Z,16.77
2019-03-13T06:38:54.004Z,11.03
2019-03-13T06:41:24.533Z,10.70
2019-03-13T06:43:54.748Z,12.20
2019-03-13T06:46:24.793Z,12.00
2019-03-13T06:48:55.197Z,10.80
2019-03-13T06:51:25.486Z,17.37
2019-03-13T06:53:55.643Z,8.93
2019-03-13T06:56:25.709Z,10.95
2019-03-13T06:58:57.434Z,12.13
2019-03-13T07:01:35.849Z,7.33
2019-03-13T07:04:17.547Z,15.72
2019-03-13T07:06:52.277Z,17.48
2019-03-13T07:09:33.171Z,10.40
2019-03-13T07:12:11.548Z,11.75
2019-03-13T07:14:59.546Z,13.95
2019-03-13T07:17:35.194Z,13.83
2019-03-13T07:20:10.853Z,15.03
2019-03-13T07:22:45.454Z,11.88
2019-03-13T07:25:24.425Z,8.28
2019-03-13T07:28:05.159Z,16.57
2019-03-13T07:30:46.122Z,10.08
2019-03-13T07:33:20.647Z,11.53
2019-03-13T07:35:58.909Z,16.55
2019-03-13T07:38:39.452Z,7.47
2019-03-13T07:41:29.234Z,12.78
2019-03-13T07:44:03.726Z,11.35
2019-03-13T07:46:38.417Z,8.95
2019-03-13T07:49:10.121Z,11.65
2019-03-13T07:51:41.808Z,8.15
2019-03-13T07:54:25.425Z,16.02
2019-03-13T07:57:05.945Z,11.12
2019-03-13T07:59:43.705Z,12.90
2019-03-13T08:02:18.377Z,12.73
2019-03-13T08:04:50.151Z,13.30
2019-03-13T08:07:33.737Z,10.18
2019-03-13T08:10:07.274Z,9.28
2019-03-13T08:15:16.364Z,12.82
2019-03-13T08:18:04.805Z,11.47
2019-03-13T08:20:39.544Z,14.93
2019-03-13T08:23:11.512Z,9.60
2019-03-13T08:25:43.213Z,10.53
2019-03-13T08:28:17.745Z,12.00
2019-03-13T08:30:52.364Z,18.95
2019-03-13T08:33:32.903Z,9.80
2019-03-13T08:36:07.333Z,12.73
2019-03-13T08:38:39.042Z,16.60
2019-03-13T08:41:13.369Z,11.97
2019-03-13T08:43:51.578Z,9.08
2019-03-13T08:46:24.194Z,15.08
2019-03-13T08:48:55.899Z,18.65
2019-03-13T08:51:42.925Z,16.55
2019-03-13T08:54:14.624Z,12.43
2019-03-13T08:56:49.425Z,12.68
2019-03-13T08:59:23.481Z,10.50
2019-03-13T09:01:57.492Z,10.15
2019-03-13T09:04:31.967Z,13.22
2019-03-13T09:07:18.945Z,9.60
2019-03-13T09:09:50.583Z,13.30
2019-03-13T09:12:38.680Z,14.00
2019-03-13T09:15:26.665Z,11.95
2019-03-13T09:18:07.134Z,17.90
2019-03-13T09:20:39.235Z,14.55
2019-03-13T09:23:11.038Z,18.27
2019-03-13T09:25:48.674Z,17.73
2019-03-13T09:28:23.496Z,23.40
2019-03-13T09:31:07.166Z,17.00
2019-03-13T09:33:41.592Z,15.88
2019-03-13T09:36:19.096Z,18.70
2019-03-13T09:39:00.065Z,20.45
2019-03-13T09:41:38.355Z,14.60
2019-03-13T09:44:25.388Z,16.42
2019-03-13T09:47:02.791Z,21.17
2019-03-13T09:49:34.506Z,14.23
2019-03-13T09:52:09.102Z,15.58
2019-03-13T09:54:40.909Z,16.60
2019-03-13T09:57:12.615Z,20.15
2019-03-13T09:59:44.450Z,13.75
2019-03-13T10:02:28.264Z,9.40
2019-03-13T10:07:49.275Z,9.43
2019-03-13T10:10:34.244Z,9.30
2019-03-13T10:15:48.537Z,7.37
2019-03-13T10:18:29.389Z,9.93
2019-03-13T10:21:13.083Z,8.33
2019-03-13T10:23:54.206Z,7.95
2019-03-13T10:26:26.054Z,10.53
2019-03-13T10:29:01.010Z,10.08
2019-03-13T10:31:39.005Z,9.35
2019-03-13T10:34:25.488Z,9.33
2019-03-13T10:37:06.450Z,7.97
2019-03-13T10:39:44.165Z,11.55
2019-03-13T10:42:15.958Z,6.95
2019-03-13T10:45:03.095Z,7.37
2019-03-13T10:47:37.390Z,8.40
2019-03-13T10:50:18.398Z,13.00
2019-03-13T10:52:50.185Z,11.53
2019-03-13T10:55:30.772Z,14.33
2019-03-13T10:58:11.855Z,15.23
2019-03-13T11:01:00.712Z,9.63
2019-03-13T11:03:47.851Z,12.82
2019-03-13T11:06:19.621Z,11.22
2019-03-13T11:08:51.385Z,22.87
2019-03-13T11:11:23.152Z,11.30
2019-03-13T11:14:14.944Z,13.78
2019-03-13T11:16:43.001Z,12.43
2019-03-13T11:19:15.073Z,12.53
2019-03-13T11:21:49.573Z,10.70
2019-03-13T11:24:21.516Z,7.85
2019-03-13T11:27:09.996Z,10.75
2019-03-13T11:29:44.195Z,16.30
2019-03-13T11:32:21.801Z,14.20
2019-03-13T11:34:53.872Z,11.50
2019-03-13T11:37:37.689Z,10.90
2019-03-13T11:40:24.670Z,11.35
2019-03-13T11:42:59.514Z,8.75
2019-03-13T11:45:43.605Z,12.47
2019-03-13T11:48:15.240Z,12.70
2019-03-13T11:50:47.009Z,7.85
2019-03-13T11:53:21.584Z,9.25
2019-03-13T11:55:56.334Z,8.75
2019-03-13T11:58:31.311Z,14.50
2019-03-13T12:01:06.041Z,11.63
2019-03-13T12:03:37.888Z,13.53
2019-03-13T12:06:21.743Z,10.75
2019-03-13T12:08:53.511Z,16.50
2019-03-13T12:11:31.089Z,12.80
2019-03-13T12:14:18.404Z,10.13
2019-03-13T12:16:53.131Z,10.50
2019-03-13T12:19:30.589Z,11.30
2019-03-13T12:22:08.065Z,13.65
2019-03-13T12:24:45.815Z,11.60
2019-03-13T12:27:33.595Z,10.30
2019-03-13T12:30:19.668Z,8.93
2019-03-13T12:32:54.114Z,10.08
2019-03-13T12:35:28.925Z,9.35
2019-03-13T12:38:06.569Z,9.25
2019-03-13T12:40:47.276Z,11.55
2019-03-13T12:43:37.198Z,11.33
2019-03-13T12:46:21.189Z,10.55
2019-03-13T12:51:41.918Z,13.53
2019-03-13T12:54:14.074Z,13.35
2019-03-13T12:57:02.581Z,8.73
2019-03-13T12:59:37.161Z,10.20
2019-03-13T13:03:01.162Z,9.28
2019-03-13T13:05:49.026Z,8.10
2019-03-13T13:08:37.433Z,7.10
2019-03-13T13:11:21.355Z,6.33
2019-03-13T13:16:26.989Z,8.38
2019-03-13T13:18:57.065Z,5.47
2019-03-13T13:21:27.194Z,5.58
2019-03-13T13:23:57.692Z,9.75
2019-03-13T13:26:28.112Z,9.23
2019-03-13T13:28:58.239Z,10.85
2019-03-13T13:31:28.696Z,6.72
2019-03-13T13:33:58.750Z,8.20
2019-03-13T13:36:28.747Z,6.20
2019-03-13T13:38:58.810Z,6.97
2019-03-13T13:41:29.250Z,10.85
2019-03-13T13:43:59.301Z,7.97
2019-03-13T13:46:29.430Z,9.28
2019-03-13T13:48:59.553Z,7.35
2019-03-13T13:51:32.574Z,6.05
2019-03-13T13:54:01.425Z,7.30
2019-03-13T13:56:31.548Z,8.18
2019-03-13T13:59:01.679Z,6.45
2019-03-13T14:01:31.804Z,12.55
2019-03-13T14:04:01.861Z,6.67
2019-03-13T14:06:31.925Z,10.75
2019-03-13T14:09:01.977Z,8.68
2019-03-13T14:11:33.597Z,9.20
2019-03-13T14:14:03.719Z,9.63
2019-03-13T14:16:33.765Z,7.25
2019-03-13T14:19:04.616Z,11.00
2019-03-13T14:21:34.601Z,7.70
2019-03-13T14:24:04.721Z,6.37
2019-03-13T14:26:34.846Z,8.13
2019-03-13T14:29:04.935Z,8.43
2019-03-13T14:31:35.056Z,6.35
2019-03-13T14:34:05.184Z,8.45
2019-03-13T14:36:35.318Z,8.60
2019-03-13T14:39:07.937Z,7.62
2019-03-13T14:41:38.057Z,7.50
2019-03-13T14:44:08.593Z,10.75
2019-03-13T14:46:38.730Z,11.93
2019-03-13T14:49:09.032Z,5.37
2019-03-13T14:51:39.448Z,7.50
2019-03-13T14:54:09.503Z,5.72
2019-03-13T14:56:39.619Z,6.95
2019-03-13T14:59:09.735Z,6.17
2019-03-13T15:01:39.797Z,7.85
2019-03-13T15:04:11.011Z,7.62
2019-03-13T15:06:41.006Z,10.23
2019-03-13T15:09:11.122Z,6.33
2019-03-13T15:11:41.947Z,11.93
2019-03-13T15:14:12.006Z,5.05
2019-03-13T15:16:42.399Z,6.42
2019-03-13T15:19:12.386Z,7.35
2019-03-13T15:21:42.529Z,6.30
2019-03-13T15:24:12.670Z,8.88
2019-03-13T15:26:42.732Z,6.78
2019-03-13T15:29:12.860Z,7.35
2019-03-13T15:31:42.980Z,8.63
2019-03-13T15:34:12.976Z,9.28
2019-03-13T15:36:43.093Z,6.58
2019-03-13T15:39:13.568Z,10.70
2019-03-13T15:41:43.699Z,7.65
2019-03-13T15:44:13.752Z,7.62
2019-03-13T15:46:43.946Z,9.13
2019-03-13T15:49:14.002Z,9.15
2019-03-13T15:51:44.059Z,7.20
2019-03-13T15:54:14.246Z,6.70
2019-03-13T15:56:44.368Z,8.38
2019-03-13T15:59:14.845Z,8.45
2019-03-13T16:01:44.815Z,9.28
2019-03-13T16:04:14.865Z,7.97
2019-03-13T16:06:45.214Z,6.20
2019-03-13T16:09:15.336Z,8.80
2019-03-13T16:11:45.773Z,7.95
2019-03-13T16:14:15.899Z,9.60
2019-03-13T16:16:47.414Z,8.60
2019-03-13T16:19:17.933Z,5.62
2019-03-13T16:21:48.230Z,8.30
2019-03-13T16:24:18.585Z,8.95
2019-03-13T16:26:49.007Z,6.85
2019-03-13T16:29:19.441Z,8.45
2019-03-13T16:31:49.977Z,9.03
2019-03-13T16:34:20.022Z,9.95
2019-03-13T16:36:50.485Z,10.58
2019-03-13T16:39:20.690Z,6.22
2019-03-13T16:41:50.741Z,6.78
2019-03-13T16:44:20.865Z,6.53
2019-03-13T16:46:50.925Z,17.32
2019-03-13T16:49:21.004Z,12.65
2019-03-13T16:51:51.134Z,11.38
2019-03-13T16:54:21.457Z,16.05
2019-03-13T16:56:51.665Z,14.80
2019-03-13T16:59:22.208Z,17.15
2019-03-13T17:01:52.265Z,11.28
2019-03-13T17:04:22.250Z,10.50
2019-03-13T17:06:52.241Z,14.83
2019-03-13T17:09:22.241Z,11.53
2019-03-13T17:11:52.305Z,16.82
2019-03-13T17:14:22.438Z,10.65
2019-03-13T17:16:52.575Z,10.80
2019-03-13T17:19:22.791Z,8.30
2019-03-13T17:21:53.002Z,11.55
2019-03-13T17:24:23.201Z,18.73
2019-03-13T17:26:53.462Z,11.70
2019-03-13T17:29:23.747Z,7.72
2019-03-13T17:31:53.957Z,12.82
2019-03-13T17:34:24.092Z,10.32
2019-03-13T17:36:54.085Z,7.80
2019-03-13T17:39:24.222Z,10.55
2019-03-13T17:41:54.350Z,17.20
2019-03-13T17:44:24.404Z,20.23
2019-03-13T17:46:54.392Z,36.53
2019-03-13T17:49:24.404Z,50.03
2019-03-13T17:51:54.823Z,67.75
2019-03-13T17:54:25.356Z,53.35
2019-03-13T17:56:55.714Z,62.73
2019-03-13T17:59:25.853Z,77.20
2019-03-13T18:01:55.912Z,36.17
2019-03-13T18:04:26.057Z,20.15
2019-03-13T18:06:56.118Z,20.88
2019-03-13T18:09:26.326Z,19.17
2019-03-13T18:11:56.790Z,20.20
2019-03-13T18:14:29.603Z,25.55
2019-03-13T18:16:58.540Z,28.02
2019-03-13T18:19:28.720Z,23.98
2019-03-13T18:21:59.122Z,18.23
2019-03-13T18:24:29.327Z,26.40
2019-03-13T18:26:59.525Z,16.42
2019-03-13T18:29:29.576Z,17.02
2019-03-13T18:31:59.784Z,15.15
2019-03-13T18:34:31.082Z,20.00
2019-03-13T18:37:01.490Z,13.13
2019-03-13T18:39:31.903Z,12.35
2019-03-13T18:42:02.037Z,11.90
2019-03-13T18:44:32.228Z,20.92
2019-03-13T18:47:02.293Z,17.70
2019-03-13T18:49:32.362Z,13.93
2019-03-13T18:52:02.387Z,13.80
2019-03-13T18:54:32.500Z,17.85
2019-03-13T18:57:02.939Z,18.67
2019-03-13T18:59:33.140Z,10.85
2019-03-13T19:02:03.271Z,11.80
2019-03-13T19:04:33.619Z,11.73
2019-03-13T19:07:03.671Z,13.88
2019-03-13T19:09:33.870Z,13.30
2019-03-13T19:12:04.161Z,14.73
2019-03-13T19:14:34.223Z,10.75
2019-03-13T19:17:04.279Z,15.48
2019-03-13T19:19:34.356Z,14.35
2019-03-13T19:22:04.405Z,13.58
2019-03-13T19:24:34.884Z,11.20
2019-03-13T19:27:05.412Z,12.45
2019-03-13T19:29:35.453Z,11.50
2019-03-13T19:32:05.655Z,19.25
2019-03-13T19:34:35.625Z,13.50
2019-03-13T19:37:05.760Z,14.80
2019-03-13T19:39:35.882Z,11.25
2019-03-13T19:42:05.964Z,14.90
2019-03-13T19:44:37.964Z,17.02
2019-03-13T19:47:08.511Z,17.30
2019-03-13T19:49:38.939Z,18.32
2019-03-13T19:52:09.461Z,13.55
2019-03-13T19:54:39.557Z,13.05
2019-03-13T19:57:09.556Z,16.40
2019-03-13T19:59:39.610Z,12.07
2019-03-13T20:02:10.050Z,16.93
2019-03-13T20:04:47.295Z,10.18
2019-03-13T20:07:12.356Z,14.95
2019-03-13T20:09:42.678Z,19.12
2019-03-13T20:12:14.182Z,23.22
2019-03-13T20:14:46.272Z,21.73
2019-03-13T20:17:16.481Z,19.92
2019-03-13T20:19:46.677Z,15.50
2019-03-13T20:22:16.789Z,19.32
2019-03-13T20:24:47.234Z,14.53
2019-03-13T20:27:17.361Z,13.93
2019-03-13T20:29:47.917Z,12.98
2019-03-13T20:32:18.118Z,13.58
2019-03-13T20:34:48.301Z,16.20
2019-03-13T20:37:18.442Z,18.77
2019-03-13T20:39:48.592Z,20.70
2019-03-13T20:42:19.036Z,23.10
2019-03-13T20:44:49.553Z,17.57
2019-03-13T20:47:19.651Z,23.90
2019-03-13T20:49:49.998Z,13.20
2019-03-13T20:52:20.081Z,20.80
2019-03-13T20:54:50.072Z,16.35
2019-03-13T20:57:20.461Z,16.12
2019-03-13T20:59:50.989Z,16.48
2019-03-13T21:02:21.314Z,22.27
2019-03-13T21:04:51.453Z,17.12
2019-03-13T21:07:21.505Z,16.67
2019-03-13T21:09:51.985Z,17.17
2019-03-13T21:12:23.089Z,16.25
2019-03-13T21:14:53.449Z,18.15
2019-03-13T21:17:23.984Z,21.70
2019-03-13T21:19:54.077Z,19.73
2019-03-13T21:22:24.121Z,18.65
2019-03-13T21:24:54.253Z,13.13
2019-03-13T21:27:24.386Z,16.50
2019-03-13T21:29:54.525Z,17.48
2019-03-13T21:32:24.648Z,15.90
2019-03-13T21:34:55.230Z,13.75
2019-03-13T21:37:25.290Z,15.25
2019-03-13T21:39:55.477Z,14.65
2019-03-13T21:42:25.892Z,14.60
2019-03-13T21:44:56.007Z,14.60
2019-03-13T21:47:26.183Z,21.75
2019-03-13T21:49:56.231Z,13.10
2019-03-13T21:52:26.370Z,16.45
2019-03-13T21:54:56.499Z,14.50
2019-03-13T21:57:26.546Z,19.00
2019-03-13T21:59:56.615Z,17.70
2019-03-13T22:02:32.508Z,23.05
2019-03-13T22:04:58.642Z,15.55
2019-03-13T22:07:28.791Z,17.20
2019-03-13T22:09:59.061Z,26.45
2019-03-13T22:12:29.268Z,21.77
2019-03-13T22:14:59.693Z,18.20
2019-03-13T22:17:30.016Z,23.27
2019-03-13T22:20:00.378Z,20.43
2019-03-13T22:22:31.283Z,23.55
2019-03-13T22:25:01.342Z,22.73
2019-03-13T22:27:31.924Z,21.87
2019-03-13T22:30:02.561Z,14.98
2019-03-13T22:32:32.809Z,14.73
2019-03-13T22:35:03.354Z,13.50
2019-03-13T22:37:33.543Z,20.15
2019-03-13T22:40:05.353Z,20.48
2019-03-13T22:42:35.728Z,17.35
2019-03-13T22:45:08.739Z,16.50
2019-03-13T22:47:42.991Z,15.75
2019-03-13T22:50:20.813Z,11.93
2019-03-13T22:52:50.941Z,13.13
2019-03-13T22:55:21.585Z,17.90
2019-03-13T22:57:52.052Z,17.75
2019-03-13T23:00:32.682Z,12.80
2019-03-13T23:03:04.005Z,14.70
2019-03-13T23:05:36.098Z,12.88
2019-03-13T23:08:05.769Z,22.00
2019-03-13T23:10:36.308Z,19.92
2019-03-13T23:13:06.297Z,18.90
2019-03-13T23:15:36.651Z,19.57
2019-03-13T23:18:07.089Z,23.02
2019-03-13T23:20:37.519Z,19.82
2019-03-13T23:23:07.521Z,18.00
2019-03-13T23:25:37.625Z,22.77
2019-03-13T23:28:07.662Z,21.65
2019-03-13T23:30:37.859Z,20.17
2019-03-13T23:33:08.035Z,16.30
2019-03-13T23:35:38.217Z,20.40
2019-03-13T23:38:08.349Z,18.10
2019-03-13T23:40:38.435Z,15.43
2019-03-13T23:43:08.498Z,17.95
2019-03-13T23:45:38.633Z,19.30
2019-03-13T23:48:09.700Z,16.60
2019-03-13T23:50:39.833Z,12.80
2019-03-13T23:53:09.961Z,13.32
2019-03-13T23:55:39.997Z,19.07
2019-03-13T23:58:11.477Z,15.10
